sensor_id;sensor_type;location;lat;lon;timestamp;temperature;humidity
76878;DHT22;65843;50.692;12.844;2023-06-04T00:00:10;13.80;62.10
76878;DHT22;65843;50.692;12.844;2023-06-04T00:01:11;13.80;62.10
76878;DHT22;65843;50.692;12.844;2023-06-04T00:02:12;13.80;62.20
76878;DHT22;65843;50.692;12.844;2023-06-04T00:03:13;13.80;62.00
76878;DHT22;65843;50.692;12.844;2023-06-04T00:04:14;13.80;61.70
76878;DHT22;65843;50.692;12.844;2023-06-04T00:05:15;13.80;61.50
76878;DHT22;65843;50.692;12.844;2023-06-04T00:06:16;13.80;61.50
76878;DHT22;65843;50.692;12.844;2023-06-04T00:07:17;13.80;61.50
76878;DHT22;65843;50.692;12.844;2023-06-04T00:08:17;13.80;61.40
76878;DHT22;65843;50.692;12.844;2023-06-04T00:09:18;13.90;61.30
76878;DHT22;65843;50.692;12.844;2023-06-04T00:10:19;13.80;61.50
76878;DHT22;65843;50.692;12.844;2023-06-04T00:11:20;13.90;61.50
76878;DHT22;65843;50.692;12.844;2023-06-04T00:12:21;13.90;61.60
76878;DHT22;65843;50.692;12.844;2023-06-04T00:13:22;13.90;61.60
76878;DHT22;65843;50.692;12.844;2023-06-04T00:14:23;13.90;61.70
76878;DHT22;65843;50.692;12.844;2023-06-04T00:15:23;13.90;61.70
76878;DHT22;65843;50.692;12.844;2023-06-04T00:16:24;13.90;61.80
76878;DHT22;65843;50.692;12.844;2023-06-04T00:17:25;13.90;61.70
76878;DHT22;65843;50.692;12.844;2023-06-04T00:18:26;13.90;61.70
76878;DHT22;65843;50.692;12.844;2023-06-04T00:19:27;13.90;61.60
76878;DHT22;65843;50.692;12.844;2023-06-04T00:20:28;13.90;61.70
76878;DHT22;65843;50.692;12.844;2023-06-04T00:21:29;13.90;61.70
76878;DHT22;65843;50.692;12.844;2023-06-04T00:22:30;13.90;61.80
76878;DHT22;65843;50.692;12.844;2023-06-04T00:23:31;13.90;61.70
76878;DHT22;65843;50.692;12.844;2023-06-04T00:24:31;13.90;61.80
76878;DHT22;65843;50.692;12.844;2023-06-04T00:25:32;13.90;61.80
76878;DHT22;65843;50.692;12.844;2023-06-04T00:26:33;13.80;61.90
76878;DHT22;65843;50.692;12.844;2023-06-04T00:27:35;13.80;61.90
76878;DHT22;65843;50.692;12.844;2023-06-04T00:28:35;13.80;61.90
76878;DHT22;65843;50.692;12.844;2023-06-04T00:29:36;13.80;61.90
76878;DHT22;65843;50.692;12.844;2023-06-04T00:30:37;13.80;61.90
76878;DHT22;65843;50.692;12.844;2023-06-04T00:31:38;13.80;62.00
76878;DHT22;65843;50.692;12.844;2023-06-04T00:32:39;13.80;62.00
76878;DHT22;65843;50.692;12.844;2023-06-04T00:33:40;13.80;62.10
76878;DHT22;65843;50.692;12.844;2023-06-04T00:34:41;13.70;62.10
76878;DHT22;65843;50.692;12.844;2023-06-04T00:35:42;13.70;62.10
76878;DHT22;65843;50.692;12.844;2023-06-04T00:36:43;13.70;62.10
76878;DHT22;65843;50.692;12.844;2023-06-04T00:37:44;13.70;62.10
76878;DHT22;65843;50.692;12.844;2023-06-04T00:38:44;13.80;62.20
76878;DHT22;65843;50.692;12.844;2023-06-04T00:39:46;13.70;62.20
76878;DHT22;65843;50.692;12.844;2023-06-04T00:40:46;13.70;62.20
76878;DHT22;65843;50.692;12.844;2023-06-04T00:41:47;13.70;62.20
76878;DHT22;65843;50.692;12.844;2023-06-04T00:42:48;13.70;62.20
76878;DHT22;65843;50.692;12.844;2023-06-04T00:43:50;13.70;61.90
76878;DHT22;65843;50.692;12.844;2023-06-04T00:44:56;13.70;61.60
76878;DHT22;65843;50.692;12.844;2023-06-04T00:45:58;13.70;61.20
76878;DHT22;65843;50.692;12.844;2023-06-04T00:46:59;13.70;61.30
76878;DHT22;65843;50.692;12.844;2023-06-04T00:48:00;13.70;61.40
76878;DHT22;65843;50.692;12.844;2023-06-04T00:49:01;13.70;61.30
76878;DHT22;65843;50.692;12.844;2023-06-04T00:50:02;13.70;61.50
76878;DHT22;65843;50.692;12.844;2023-06-04T00:51:03;13.70;61.40
76878;DHT22;65843;50.692;12.844;2023-06-04T00:52:04;13.70;61.60
76878;DHT22;65843;50.692;12.844;2023-06-04T00:53:05;13.70;61.80
76878;DHT22;65843;50.692;12.844;2023-06-04T00:54:07;13.80;61.80
76878;DHT22;65843;50.692;12.844;2023-06-04T00:55:09;13.80;61.90
76878;DHT22;65843;50.692;12.844;2023-06-04T00:56:10;13.80;61.90
76878;DHT22;65843;50.692;12.844;2023-06-04T00:57:12;13.80;61.70
76878;DHT22;65843;50.692;12.844;2023-06-04T00:58:13;13.80;61.80
76878;DHT22;65843;50.692;12.844;2023-06-04T00:59:16;13.80;61.60
76878;DHT22;65843;50.692;12.844;2023-06-04T01:00:17;13.80;61.70
76878;DHT22;65843;50.692;12.844;2023-06-04T01:02:23;13.80;61.70
76878;DHT22;65843;50.692;12.844;2023-06-04T01:03:25;13.80;61.80
76878;DHT22;65843;50.692;12.844;2023-06-04T01:04:33;13.70;61.80
76878;DHT22;65843;50.692;12.844;2023-06-04T01:05:41;13.70;61.80
76878;DHT22;65843;50.692;12.844;2023-06-04T01:06:43;13.70;61.80
76878;DHT22;65843;50.692;12.844;2023-06-04T01:07:44;13.70;61.80
76878;DHT22;65843;50.692;12.844;2023-06-04T01:08:50;13.70;61.90
76878;DHT22;65843;50.692;12.844;2023-06-04T01:09:55;13.70;61.90
76878;DHT22;65843;50.692;12.844;2023-06-04T01:10:56;13.70;62.00
76878;DHT22;65843;50.692;12.844;2023-06-04T01:11:57;13.70;62.10
76878;DHT22;65843;50.692;12.844;2023-06-04T01:12:58;13.70;62.00
76878;DHT22;65843;50.692;12.844;2023-06-04T01:14:00;13.70;62.10
76878;DHT22;65843;50.692;12.844;2023-06-04T01:15:01;13.70;62.10
76878;DHT22;65843;50.692;12.844;2023-06-04T01:16:02;13.70;62.10
76878;DHT22;65843;50.692;12.844;2023-06-04T01:18:05;13.70;62.00
76878;DHT22;65843;50.692;12.844;2023-06-04T01:19:11;13.70;62.00
76878;DHT22;65843;50.692;12.844;2023-06-04T01:21:22;13.70;62.10
76878;DHT22;65843;50.692;12.844;2023-06-04T01:24:00;13.70;62.00
76878;DHT22;65843;50.692;12.844;2023-06-04T01:25:03;13.60;61.20
76878;DHT22;65843;50.692;12.844;2023-06-04T01:26:04;13.60;61.00
76878;DHT22;65843;50.692;12.844;2023-06-04T01:27:05;13.60;61.00
76878;DHT22;65843;50.692;12.844;2023-06-04T01:28:07;13.60;61.10
76878;DHT22;65843;50.692;12.844;2023-06-04T01:29:08;13.60;61.00
76878;DHT22;65843;50.692;12.844;2023-06-04T01:30:10;13.60;61.20
76878;DHT22;65843;50.692;12.844;2023-06-04T01:31:11;13.60;61.40
76878;DHT22;65843;50.692;12.844;2023-06-04T01:32:13;13.60;61.40
76878;DHT22;65843;50.692;12.844;2023-06-04T01:33:16;13.60;61.50
76878;DHT22;65843;50.692;12.844;2023-06-04T01:34:17;13.60;61.40
76878;DHT22;65843;50.692;12.844;2023-06-04T01:35:17;13.60;61.50
76878;DHT22;65843;50.692;12.844;2023-06-04T01:36:19;13.70;61.50
76878;DHT22;65843;50.692;12.844;2023-06-04T01:37:20;13.60;61.50
76878;DHT22;65843;50.692;12.844;2023-06-04T01:38:20;13.70;61.60
76878;DHT22;65843;50.692;12.844;2023-06-04T01:39:21;13.70;61.60
76878;DHT22;65843;50.692;12.844;2023-06-04T01:40:22;13.70;61.60
76878;DHT22;65843;50.692;12.844;2023-06-04T01:41:24;13.60;61.50
76878;DHT22;65843;50.692;12.844;2023-06-04T01:42:25;13.60;61.60
76878;DHT22;65843;50.692;12.844;2023-06-04T01:43:27;13.60;61.60
76878;DHT22;65843;50.692;12.844;2023-06-04T01:44:28;13.60;61.50
76878;DHT22;65843;50.692;12.844;2023-06-04T01:45:29;13.60;61.60
76878;DHT22;65843;50.692;12.844;2023-06-04T01:46:30;13.60;61.70
76878;DHT22;65843;50.692;12.844;2023-06-04T01:47:31;13.60;61.70
76878;DHT22;65843;50.692;12.844;2023-06-04T01:48:32;13.60;61.70
76878;DHT22;65843;50.692;12.844;2023-06-04T01:49:33;13.60;61.70
76878;DHT22;65843;50.692;12.844;2023-06-04T01:50:34;13.60;61.80
76878;DHT22;65843;50.692;12.844;2023-06-04T01:51:35;13.60;61.90
76878;DHT22;65843;50.692;12.844;2023-06-04T01:52:37;13.60;61.90
76878;DHT22;65843;50.692;12.844;2023-06-04T01:53:38;13.60;61.90
76878;DHT22;65843;50.692;12.844;2023-06-04T01:54:39;13.60;61.90
76878;DHT22;65843;50.692;12.844;2023-06-04T01:55:41;13.60;62.00
76878;DHT22;65843;50.692;12.844;2023-06-04T01:56:42;13.60;61.90
76878;DHT22;65843;50.692;12.844;2023-06-04T01:57:44;13.60;62.00
76878;DHT22;65843;50.692;12.844;2023-06-04T01:58:45;13.60;62.00
76878;DHT22;65843;50.692;12.844;2023-06-04T01:59:46;13.60;61.90
76878;DHT22;65843;50.692;12.844;2023-06-04T02:00:47;13.50;62.00
76878;DHT22;65843;50.692;12.844;2023-06-04T02:01:50;13.50;62.00
76878;DHT22;65843;50.692;12.844;2023-06-04T02:02:51;13.60;61.90
76878;DHT22;65843;50.692;12.844;2023-06-04T02:03:52;13.50;61.60
76878;DHT22;65843;50.692;12.844;2023-06-04T02:04:53;13.50;61.20
76878;DHT22;65843;50.692;12.844;2023-06-04T02:05:54;13.60;61.00
76878;DHT22;65843;50.692;12.844;2023-06-04T02:06:55;13.60;61.00
76878;DHT22;65843;50.692;12.844;2023-06-04T02:07:57;13.50;61.00
76878;DHT22;65843;50.692;12.844;2023-06-04T02:08:58;13.50;61.10
76878;DHT22;65843;50.692;12.844;2023-06-04T02:10:01;13.50;61.10
76878;DHT22;65843;50.692;12.844;2023-06-04T02:11:01;13.60;61.30
76878;DHT22;65843;50.692;12.844;2023-06-04T02:12:03;13.50;61.20
76878;DHT22;65843;50.692;12.844;2023-06-04T02:13:03;13.50;61.40
76878;DHT22;65843;50.692;12.844;2023-06-04T02:14:05;13.50;61.60
76878;DHT22;65843;50.692;12.844;2023-06-04T02:15:06;13.60;61.50
76878;DHT22;65843;50.692;12.844;2023-06-04T02:16:08;13.60;61.30
76878;DHT22;65843;50.692;12.844;2023-06-04T02:17:08;13.60;61.50
76878;DHT22;65843;50.692;12.844;2023-06-04T02:18:14;13.60;61.40
76878;DHT22;65843;50.692;12.844;2023-06-04T02:19:16;13.60;61.50
76878;DHT22;65843;50.692;12.844;2023-06-04T02:20:19;13.60;61.60
76878;DHT22;65843;50.692;12.844;2023-06-04T02:21:20;13.60;61.40
76878;DHT22;65843;50.692;12.844;2023-06-04T02:22:21;13.60;61.60
76878;DHT22;65843;50.692;12.844;2023-06-04T02:23:22;13.50;61.70
76878;DHT22;65843;50.692;12.844;2023-06-04T02:24:23;13.50;61.80
76878;DHT22;65843;50.692;12.844;2023-06-04T02:25:24;13.60;61.80
76878;DHT22;65843;50.692;12.844;2023-06-04T02:26:24;13.50;61.80
76878;DHT22;65843;50.692;12.844;2023-06-04T02:27:25;13.50;61.80
76878;DHT22;65843;50.692;12.844;2023-06-04T02:28:26;13.50;61.90
76878;DHT22;65843;50.692;12.844;2023-06-04T02:29:27;13.50;61.90
76878;DHT22;65843;50.692;12.844;2023-06-04T02:30:28;13.50;62.00
76878;DHT22;65843;50.692;12.844;2023-06-04T02:31:29;13.50;62.00
76878;DHT22;65843;50.692;12.844;2023-06-04T02:32:31;13.50;62.00
76878;DHT22;65843;50.692;12.844;2023-06-04T02:33:34;13.50;62.00
76878;DHT22;65843;50.692;12.844;2023-06-04T02:34:35;13.50;62.00
76878;DHT22;65843;50.692;12.844;2023-06-04T02:35:36;13.50;62.00
76878;DHT22;65843;50.692;12.844;2023-06-04T02:36:37;13.50;62.10
76878;DHT22;65843;50.692;12.844;2023-06-04T02:37:38;13.50;62.10
76878;DHT22;65843;50.692;12.844;2023-06-04T02:38:39;13.50;62.10
76878;DHT22;65843;50.692;12.844;2023-06-04T02:39:40;13.50;62.20
76878;DHT22;65843;50.692;12.844;2023-06-04T02:40:42;13.50;62.10
76878;DHT22;65843;50.692;12.844;2023-06-04T02:41:43;13.50;62.10
76878;DHT22;65843;50.692;12.844;2023-06-04T02:42:44;13.50;61.90
76878;DHT22;65843;50.692;12.844;2023-06-04T02:43:44;13.50;61.50
76878;DHT22;65843;50.692;12.844;2023-06-04T02:44:45;13.50;61.30
76878;DHT22;65843;50.692;12.844;2023-06-04T02:45:46;13.50;61.20
76878;DHT22;65843;50.692;12.844;2023-06-04T02:46:47;13.50;61.00
76878;DHT22;65843;50.692;12.844;2023-06-04T02:47:48;13.50;61.20
76878;DHT22;65843;50.692;12.844;2023-06-04T02:48:49;13.50;61.40
76878;DHT22;65843;50.692;12.844;2023-06-04T02:49:50;13.50;61.60
76878;DHT22;65843;50.692;12.844;2023-06-04T02:50:51;13.50;61.70
76878;DHT22;65843;50.692;12.844;2023-06-04T02:51:51;13.60;61.80
76878;DHT22;65843;50.692;12.844;2023-06-04T02:52:52;13.60;61.70
76878;DHT22;65843;50.692;12.844;2023-06-04T02:53:53;13.60;61.70
76878;DHT22;65843;50.692;12.844;2023-06-04T02:54:54;13.60;61.60
76878;DHT22;65843;50.692;12.844;2023-06-04T02:55:55;13.60;61.60
76878;DHT22;65843;50.692;12.844;2023-06-04T02:56:57;13.60;61.70
76878;DHT22;65843;50.692;12.844;2023-06-04T02:57:58;13.60;61.50
76878;DHT22;65843;50.692;12.844;2023-06-04T02:58:59;13.60;61.70
76878;DHT22;65843;50.692;12.844;2023-06-04T03:00:00;13.60;61.70
76878;DHT22;65843;50.692;12.844;2023-06-04T03:01:01;13.60;61.80
76878;DHT22;65843;50.692;12.844;2023-06-04T03:02:03;13.50;61.80
76878;DHT22;65843;50.692;12.844;2023-06-04T03:03:04;13.60;61.70
76878;DHT22;65843;50.692;12.844;2023-06-04T03:04:05;13.60;61.90
76878;DHT22;65843;50.692;12.844;2023-06-04T03:05:11;13.50;61.80
76878;DHT22;65843;50.692;12.844;2023-06-04T03:06:13;13.50;61.90
76878;DHT22;65843;50.692;12.844;2023-06-04T03:07:15;13.50;61.90
76878;DHT22;65843;50.692;12.844;2023-06-04T03:08:15;13.50;61.90
76878;DHT22;65843;50.692;12.844;2023-06-04T03:09:16;13.50;62.00
76878;DHT22;65843;50.692;12.844;2023-06-04T03:10:17;13.50;62.00
76878;DHT22;65843;50.692;12.844;2023-06-04T03:11:18;13.50;62.00
76878;DHT22;65843;50.692;12.844;2023-06-04T03:12:22;13.50;62.00
76878;DHT22;65843;50.692;12.844;2023-06-04T03:13:23;13.50;62.10
76878;DHT22;65843;50.692;12.844;2023-06-04T03:14:23;13.50;62.20
76878;DHT22;65843;50.692;12.844;2023-06-04T03:15:32;13.50;62.20
76878;DHT22;65843;50.692;12.844;2023-06-04T03:16:33;13.50;62.20
76878;DHT22;65843;50.692;12.844;2023-06-04T03:17:34;13.50;62.20
76878;DHT22;65843;50.692;12.844;2023-06-04T03:18:41;13.50;62.20
76878;DHT22;65843;50.692;12.844;2023-06-04T03:19:42;13.50;62.30
76878;DHT22;65843;50.692;12.844;2023-06-04T03:20:43;13.50;62.20
76878;DHT22;65843;50.692;12.844;2023-06-04T03:21:44;13.50;62.10
76878;DHT22;65843;50.692;12.844;2023-06-04T03:22:45;13.50;61.70
76878;DHT22;65843;50.692;12.844;2023-06-04T03:23:51;13.50;61.50
76878;DHT22;65843;50.692;12.844;2023-06-04T03:24:52;13.50;61.40
76878;DHT22;65843;50.692;12.844;2023-06-04T03:25:53;13.50;61.60
76878;DHT22;65843;50.692;12.844;2023-06-04T03:26:54;13.50;61.50
76878;DHT22;65843;50.692;12.844;2023-06-04T03:27:55;13.50;61.70
76878;DHT22;65843;50.692;12.844;2023-06-04T03:28:56;13.50;61.90
76878;DHT22;65843;50.692;12.844;2023-06-04T03:29:57;13.50;61.90
76878;DHT22;65843;50.692;12.844;2023-06-04T03:30:58;13.60;62.00
76878;DHT22;65843;50.692;12.844;2023-06-04T03:31:59;13.60;62.00
76878;DHT22;65843;50.692;12.844;2023-06-04T03:33:00;13.60;62.00
76878;DHT22;65843;50.692;12.844;2023-06-04T03:34:01;13.60;62.10
76878;DHT22;65843;50.692;12.844;2023-06-04T03:35:02;13.60;62.00
76878;DHT22;65843;50.692;12.844;2023-06-04T03:36:03;13.60;62.00
76878;DHT22;65843;50.692;12.844;2023-06-04T03:37:04;13.50;61.90
76878;DHT22;65843;50.692;12.844;2023-06-04T03:38:06;13.60;62.10
76878;DHT22;65843;50.692;12.844;2023-06-04T03:39:06;13.60;62.00
76878;DHT22;65843;50.692;12.844;2023-06-04T03:40:07;13.60;62.10
76878;DHT22;65843;50.692;12.844;2023-06-04T03:41:08;13.60;62.10
76878;DHT22;65843;50.692;12.844;2023-06-04T03:42:10;13.60;62.10
76878;DHT22;65843;50.692;12.844;2023-06-04T03:43:11;13.60;62.10
76878;DHT22;65843;50.692;12.844;2023-06-04T03:44:13;13.50;62.10
76878;DHT22;65843;50.692;12.844;2023-06-04T03:45:14;13.50;62.20
76878;DHT22;65843;50.692;12.844;2023-06-04T03:46:15;13.50;62.30
76878;DHT22;65843;50.692;12.844;2023-06-04T03:47:16;13.50;62.20
76878;DHT22;65843;50.692;12.844;2023-06-04T03:48:17;13.50;62.30
76878;DHT22;65843;50.692;12.844;2023-06-04T03:49:18;13.50;62.30
76878;DHT22;65843;50.692;12.844;2023-06-04T03:50:20;13.50;62.30
76878;DHT22;65843;50.692;12.844;2023-06-04T03:51:20;13.50;62.30
76878;DHT22;65843;50.692;12.844;2023-06-04T03:52:21;13.50;62.40
76878;DHT22;65843;50.692;12.844;2023-06-04T03:53:22;13.50;62.30
76878;DHT22;65843;50.692;12.844;2023-06-04T03:54:23;13.50;62.30
76878;DHT22;65843;50.692;12.844;2023-06-04T03:55:24;13.50;62.50
76878;DHT22;65843;50.692;12.844;2023-06-04T03:56:25;13.50;62.50
76878;DHT22;65843;50.692;12.844;2023-06-04T03:57:27;13.50;62.50
76878;DHT22;65843;50.692;12.844;2023-06-04T03:58:28;13.50;62.50
76878;DHT22;65843;50.692;12.844;2023-06-04T03:59:29;13.50;62.50
76878;DHT22;65843;50.692;12.844;2023-06-04T04:00:30;13.50;62.40
76878;DHT22;65843;50.692;12.844;2023-06-04T04:01:31;13.50;62.60
76878;DHT22;65843;50.692;12.844;2023-06-04T04:02:32;13.50;62.40
76878;DHT22;65843;50.692;12.844;2023-06-04T04:03:35;13.50;62.30
76878;DHT22;65843;50.692;12.844;2023-06-04T04:04:36;13.50;62.10
76878;DHT22;65843;50.692;12.844;2023-06-04T04:05:37;13.50;62.10
76878;DHT22;65843;50.692;12.844;2023-06-04T04:06:38;13.50;62.00
76878;DHT22;65843;50.692;12.844;2023-06-04T04:07:39;13.50;62.10
76878;DHT22;65843;50.692;12.844;2023-06-04T04:08:40;13.50;62.30
76878;DHT22;65843;50.692;12.844;2023-06-04T04:09:42;13.50;62.20
76878;DHT22;65843;50.692;12.844;2023-06-04T04:10:43;13.50;62.40
76878;DHT22;65843;50.692;12.844;2023-06-04T04:11:50;13.60;62.50
76878;DHT22;65843;50.692;12.844;2023-06-04T04:12:51;13.60;62.50
76878;DHT22;65843;50.692;12.844;2023-06-04T04:14:01;13.60;62.60
76878;DHT22;65843;50.692;12.844;2023-06-04T04:15:05;13.60;62.60
76878;DHT22;65843;50.692;12.844;2023-06-04T04:16:07;13.60;62.50
76878;DHT22;65843;50.692;12.844;2023-06-04T04:17:08;13.60;62.50
76878;DHT22;65843;50.692;12.844;2023-06-04T04:18:09;13.60;62.50
76878;DHT22;65843;50.692;12.844;2023-06-04T04:19:11;13.60;62.50
76878;DHT22;65843;50.692;12.844;2023-06-04T04:20:12;13.60;62.50
76878;DHT22;65843;50.692;12.844;2023-06-04T04:21:13;13.60;62.50
76878;DHT22;65843;50.692;12.844;2023-06-04T04:22:13;13.60;62.50
76878;DHT22;65843;50.692;12.844;2023-06-04T04:23:18;13.60;62.50
76878;DHT22;65843;50.692;12.844;2023-06-04T04:24:25;13.60;62.60
76878;DHT22;65843;50.692;12.844;2023-06-04T04:25:26;13.60;62.50
76878;DHT22;65843;50.692;12.844;2023-06-04T04:26:27;13.50;62.50
76878;DHT22;65843;50.692;12.844;2023-06-04T04:27:31;13.50;62.50
76878;DHT22;65843;50.692;12.844;2023-06-04T04:28:32;13.50;62.60
76878;DHT22;65843;50.692;12.844;2023-06-04T04:29:33;13.50;62.70
76878;DHT22;65843;50.692;12.844;2023-06-04T04:30:34;13.50;62.70
76878;DHT22;65843;50.692;12.844;2023-06-04T04:31:36;13.50;62.60
76878;DHT22;65843;50.692;12.844;2023-06-04T04:32:37;13.50;62.70
76878;DHT22;65843;50.692;12.844;2023-06-04T04:33:39;13.50;62.30
76878;DHT22;65843;50.692;12.844;2023-06-04T04:34:49;13.50;62.10
76878;DHT22;65843;50.692;12.844;2023-06-04T04:35:52;13.50;61.50
76878;DHT22;65843;50.692;12.844;2023-06-04T04:36:53;13.50;60.60
76878;DHT22;65843;50.692;12.844;2023-06-04T04:37:54;13.50;60.60
76878;DHT22;65843;50.692;12.844;2023-06-04T04:38:55;13.50;61.30
76878;DHT22;65843;50.692;12.844;2023-06-04T04:39:59;13.50;61.70
76878;DHT22;65843;50.692;12.844;2023-06-04T04:41:00;13.50;61.70
76878;DHT22;65843;50.692;12.844;2023-06-04T04:42:01;13.50;61.60
76878;DHT22;65843;50.692;12.844;2023-06-04T04:43:02;13.50;61.80
76878;DHT22;65843;50.692;12.844;2023-06-04T04:44:04;13.50;61.90
76878;DHT22;65843;50.692;12.844;2023-06-04T04:45:06;13.50;61.90
76878;DHT22;65843;50.692;12.844;2023-06-04T04:46:07;13.50;62.00
76878;DHT22;65843;50.692;12.844;2023-06-04T04:47:07;13.50;62.20
76878;DHT22;65843;50.692;12.844;2023-06-04T04:48:08;13.50;62.20
76878;DHT22;65843;50.692;12.844;2023-06-04T04:49:09;13.50;62.40
76878;DHT22;65843;50.692;12.844;2023-06-04T04:50:10;13.50;62.40
76878;DHT22;65843;50.692;12.844;2023-06-04T04:51:11;13.50;62.50
76878;DHT22;65843;50.692;12.844;2023-06-04T04:52:12;13.60;62.50
76878;DHT22;65843;50.692;12.844;2023-06-04T04:53:13;13.50;62.40
76878;DHT22;65843;50.692;12.844;2023-06-04T04:54:14;13.50;62.50
76878;DHT22;65843;50.692;12.844;2023-06-04T04:55:14;13.60;62.40
76878;DHT22;65843;50.692;12.844;2023-06-04T04:56:15;13.60;62.40
76878;DHT22;65843;50.692;12.844;2023-06-04T04:57:16;13.60;62.30
76878;DHT22;65843;50.692;12.844;2023-06-04T04:58:17;13.50;62.40
76878;DHT22;65843;50.692;12.844;2023-06-04T04:59:18;13.60;62.40
76878;DHT22;65843;50.692;12.844;2023-06-04T05:00:19;13.50;62.30
76878;DHT22;65843;50.692;12.844;2023-06-04T05:01:21;13.60;62.50
76878;DHT22;65843;50.692;12.844;2023-06-04T05:02:22;13.50;62.40
76878;DHT22;65843;50.692;12.844;2023-06-04T05:03:23;13.50;62.30
76878;DHT22;65843;50.692;12.844;2023-06-04T05:04:24;13.50;62.50
76878;DHT22;65843;50.692;12.844;2023-06-04T05:05:25;13.50;62.50
76878;DHT22;65843;50.692;12.844;2023-06-04T05:06:25;13.50;62.50
76878;DHT22;65843;50.692;12.844;2023-06-04T05:07:26;13.50;62.60
76878;DHT22;65843;50.692;12.844;2023-06-04T05:08:27;13.50;62.60
76878;DHT22;65843;50.692;12.844;2023-06-04T05:09:28;13.50;62.60
76878;DHT22;65843;50.692;12.844;2023-06-04T05:10:29;13.50;62.70
76878;DHT22;65843;50.692;12.844;2023-06-04T05:11:30;13.50;62.60
76878;DHT22;65843;50.692;12.844;2023-06-04T05:12:31;13.50;62.70
76878;DHT22;65843;50.692;12.844;2023-06-04T05:13:32;13.50;62.70
76878;DHT22;65843;50.692;12.844;2023-06-04T05:14:33;13.50;62.70
76878;DHT22;65843;50.692;12.844;2023-06-04T05:15:36;13.50;62.70
76878;DHT22;65843;50.692;12.844;2023-06-04T05:16:37;13.50;62.80
76878;DHT22;65843;50.692;12.844;2023-06-04T05:17:41;13.50;63.00
76878;DHT22;65843;50.692;12.844;2023-06-04T05:18:42;13.50;62.90
76878;DHT22;65843;50.692;12.844;2023-06-04T05:19:45;13.50;62.70
76878;DHT22;65843;50.692;12.844;2023-06-04T05:20:47;13.50;62.50
76878;DHT22;65843;50.692;12.844;2023-06-04T05:21:48;13.50;62.40
76878;DHT22;65843;50.692;12.844;2023-06-04T05:22:49;13.50;62.40
76878;DHT22;65843;50.692;12.844;2023-06-04T05:23:50;13.60;62.30
76878;DHT22;65843;50.692;12.844;2023-06-04T05:24:51;13.60;62.40
76878;DHT22;65843;50.692;12.844;2023-06-04T05:25:52;13.60;62.90
76878;DHT22;65843;50.692;12.844;2023-06-04T05:26:53;13.60;62.80
76878;DHT22;65843;50.692;12.844;2023-06-04T05:27:56;13.60;62.90
76878;DHT22;65843;50.692;12.844;2023-06-04T05:28:57;13.60;63.00
76878;DHT22;65843;50.692;12.844;2023-06-04T05:29:58;13.60;63.00
76878;DHT22;65843;50.692;12.844;2023-06-04T05:30:59;13.60;63.00
76878;DHT22;65843;50.692;12.844;2023-06-04T05:32:00;13.60;63.00
76878;DHT22;65843;50.692;12.844;2023-06-04T05:33:01;13.60;63.20
76878;DHT22;65843;50.692;12.844;2023-06-04T05:34:02;13.60;63.00
76878;DHT22;65843;50.692;12.844;2023-06-04T05:35:05;13.60;62.90
76878;DHT22;65843;50.692;12.844;2023-06-04T05:36:05;13.60;63.00
76878;DHT22;65843;50.692;12.844;2023-06-04T05:37:06;13.60;62.70
76878;DHT22;65843;50.692;12.844;2023-06-04T05:38:09;13.60;62.80
76878;DHT22;65843;50.692;12.844;2023-06-04T05:39:10;13.60;62.70
76878;DHT22;65843;50.692;12.844;2023-06-04T05:40:11;13.60;62.60
76878;DHT22;65843;50.692;12.844;2023-06-04T05:41:12;13.60;62.60
76878;DHT22;65843;50.692;12.844;2023-06-04T05:42:13;13.60;62.50
76878;DHT22;65843;50.692;12.844;2023-06-04T05:43:15;13.60;62.50
76878;DHT22;65843;50.692;12.844;2023-06-04T05:44:16;13.60;62.50
76878;DHT22;65843;50.692;12.844;2023-06-04T05:45:17;13.60;62.50
76878;DHT22;65843;50.692;12.844;2023-06-04T05:46:18;13.60;62.60
76878;DHT22;65843;50.692;12.844;2023-06-04T05:47:19;13.60;62.70
76878;DHT22;65843;50.692;12.844;2023-06-04T05:48:20;13.60;62.70
76878;DHT22;65843;50.692;12.844;2023-06-04T05:49:21;13.60;62.70
76878;DHT22;65843;50.692;12.844;2023-06-04T05:50:25;13.60;62.80
76878;DHT22;65843;50.692;12.844;2023-06-04T05:51:26;13.60;63.00
76878;DHT22;65843;50.692;12.844;2023-06-04T05:52:27;13.60;63.00
76878;DHT22;65843;50.692;12.844;2023-06-04T05:53:27;13.60;63.00
76878;DHT22;65843;50.692;12.844;2023-06-04T05:54:28;13.60;63.00
76878;DHT22;65843;50.692;12.844;2023-06-04T05:55:29;13.60;63.00
76878;DHT22;65843;50.692;12.844;2023-06-04T05:56:30;13.60;62.90
76878;DHT22;65843;50.692;12.844;2023-06-04T05:57:31;13.60;63.00
76878;DHT22;65843;50.692;12.844;2023-06-04T05:58:33;13.60;62.90
76878;DHT22;65843;50.692;12.844;2023-06-04T05:59:34;13.60;62.90
76878;DHT22;65843;50.692;12.844;2023-06-04T06:00:35;13.60;62.80
76878;DHT22;65843;50.692;12.844;2023-06-04T06:01:36;13.60;62.40
76878;DHT22;65843;50.692;12.844;2023-06-04T06:02:37;13.60;62.70
76878;DHT22;65843;50.692;12.844;2023-06-04T06:03:39;13.60;62.70
76878;DHT22;65843;50.692;12.844;2023-06-04T06:04:40;13.60;62.70
76878;DHT22;65843;50.692;12.844;2023-06-04T06:05:41;13.60;62.60
76878;DHT22;65843;50.692;12.844;2023-06-04T06:06:42;13.60;62.50
76878;DHT22;65843;50.692;12.844;2023-06-04T06:07:47;13.60;62.90
76878;DHT22;65843;50.692;12.844;2023-06-04T06:08:48;13.60;63.00
76878;DHT22;65843;50.692;12.844;2023-06-04T06:09:50;13.60;63.10
76878;DHT22;65843;50.692;12.844;2023-06-04T06:10:51;13.60;63.60
76878;DHT22;65843;50.692;12.844;2023-06-04T06:11:52;13.60;63.30
76878;DHT22;65843;50.692;12.844;2023-06-04T06:12:52;13.60;63.70
76878;DHT22;65843;50.692;12.844;2023-06-04T06:13:53;13.70;64.00
76878;DHT22;65843;50.692;12.844;2023-06-04T06:14:54;13.70;63.30
76878;DHT22;65843;50.692;12.844;2023-06-04T06:15:55;13.70;63.20
76878;DHT22;65843;50.692;12.844;2023-06-04T06:16:56;13.60;63.00
76878;DHT22;65843;50.692;12.844;2023-06-04T06:17:57;13.70;62.80
76878;DHT22;65843;50.692;12.844;2023-06-04T06:18:58;13.70;62.70
76878;DHT22;65843;50.692;12.844;2023-06-04T06:19:59;13.70;62.50
76878;DHT22;65843;50.692;12.844;2023-06-04T06:21:00;13.70;62.20
76878;DHT22;65843;50.692;12.844;2023-06-04T06:22:01;13.70;62.10
76878;DHT22;65843;50.692;12.844;2023-06-04T06:23:06;13.70;62.10
76878;DHT22;65843;50.692;12.844;2023-06-04T06:24:07;13.60;62.20
76878;DHT22;65843;50.692;12.844;2023-06-04T06:25:08;13.60;62.20
76878;DHT22;65843;50.692;12.844;2023-06-04T06:26:09;13.60;62.10